Time;durP1;ratioP1;P1;durP2;ratioP2;P2;SDS_P1;SDS_P2;PMS_P1;PMS_P2;Temp;Humidity;BMP_temperature;BMP_pressure;BME280_temperature;BME280_humidity;BME280_pressure;Samples;Min_cycle;Max_cycle;Signal;HPM_P1;HPM_P2
2022/06/04 00:01:46;;;;;;;21.98;20.67;;;16.20;99.90;;;;;;5043619;28;20095;-77
2022/06/04 00:04:14;;;;;;;21.58;20.30;;;16.20;99.90;;;;;;5026949;28;20049;-76
2022/06/04 00:06:43;;;;;;;22.02;20.73;;;16.20;99.90;;;;;;5018340;28;20061;-76
2022/06/04 00:09:10;;;;;;;22.40;21.00;;;16.00;99.90;;;;;;5025093;28;20138;-75
2022/06/04 00:17:10;;;;;;;22.27;21.08;;;16.00;99.90;;;;;;5012332;28;20135;-75
2022/06/04 00:19:37;;;;;;;22.73;21.23;;;15.90;99.90;;;;;;5008825;28;20049;-76
2022/06/04 00:22:04;;;;;;;23.48;22.05;;;15.90;99.90;;;;;;5020791;28;20375;-76
2022/06/04 00:24:31;;;;;;;21.80;20.42;;;15.90;99.90;;;;;;5039392;28;20033;-75
2022/06/04 00:26:58;;;;;;;23.00;21.08;;;15.90;99.90;;;;;;5009149;28;20509;-76
2022/06/04 00:29:25;;;;;;;22.73;21.35;;;15.90;99.90;;;;;;5036081;28;20528;-76
2022/06/04 00:31:52;;;;;;;22.75;21.20;;;15.90;99.90;;;;;;5025727;28;20098;-76
2022/06/04 00:34:19;;;;;;;22.73;21.23;;;15.80;99.90;;;;;;5025004;28;20053;-75
2022/06/04 00:36:46;;;;;;;23.20;21.77;;;15.90;99.90;;;;;;5025526;28;20048;-75
2022/06/04 00:39:12;;;;;;;23.50;21.73;;;15.80;99.90;;;;;;4999131;28;20053;-75
2022/06/04 00:41:39;;;;;;;22.45;21.15;;;15.90;99.90;;;;;;4986628;28;20230;-76
2022/06/04 00:44:15;;;;;;;22.63;21.23;;;15.70;99.90;;;;;;4986614;28;20053;-75
2022/06/04 00:47:00;;;;;;;22.95;21.42;;;15.70;99.90;;;;;;4986841;28;20801;-75
2022/06/04 00:49:27;;;;;;;22.55;21.25;;;15.70;99.90;;;;;;5023160;28;20719;-75
2022/06/04 00:52:02;;;;;;;23.13;21.48;;;15.70;99.90;;;;;;5028297;28;20495;-75
2022/06/04 00:54:29;;;;;;;22.77;21.38;;;15.70;99.90;;;;;;5006199;28;20103;-75
2022/06/04 00:57:18;;;;;;;22.52;21.13;;;15.70;99.90;;;;;;5020730;28;20147;-74
2022/06/04 01:00:07;;;;;;;22.75;21.35;;;15.70;99.90;;;;;;5022557;28;20046;-76
2022/06/04 01:02:43;;;;;;;22.77;21.20;;;15.60;99.90;;;;;;5005230;28;20091;-74
2022/06/04 01:05:21;;;;;;;22.13;20.83;;;15.60;99.90;;;;;;5005172;28;20443;-75
2022/06/04 01:08:06;;;;;;;22.58;21.27;;;15.50;99.90;;;;;;4990180;28;20053;-74
2022/06/04 01:10:54;;;;;;;23.85;22.27;;;15.40;99.90;;;;;;4995468;28;20084;-76
2022/06/04 01:13:52;;;;;;;22.73;21.33;;;15.30;99.90;;;;;;5006409;28;20089;-75
2022/06/04 01:16:43;;;;;;;22.83;21.33;;;15.30;99.90;;;;;;4990577;28;20049;-74
2022/06/04 01:19:30;;;;;;;22.77;21.38;;;15.20;99.90;;;;;;5029514;28;20049;-75
2022/06/04 01:22:34;;;;;;;24.27;22.60;;;15.10;99.90;;;;;;5002059;28;20057;-75
2022/06/04 01:25:15;;;;;;;24.02;22.33;;;15.10;99.90;;;;;;5023703;28;20581;-76
2022/06/04 01:28:02;;;;;;;23.67;22.27;;;15.00;99.90;;;;;;5010243;28;20111;-76
2022/06/04 01:30:46;;;;;;;25.23;23.60;;;15.00;99.90;;;;;;5014214;28;20509;-75
2022/06/04 01:33:33;;;;;;;25.65;24.00;;;14.90;99.90;;;;;;5004489;28;20061;-74
2022/06/04 01:36:17;;;;;;;24.40;23.02;;;14.90;99.90;;;;;;5005956;28;20045;-74
2022/06/04 01:39:03;;;;;;;25.40;23.83;;;14.80;99.90;;;;;;5001423;28;20498;-76
2022/06/04 01:41:33;;;;;;;26.23;24.48;;;14.70;99.90;;;;;;4994897;28;20076;-75
2022/06/04 01:44:06;;;;;;;26.10;24.40;;;14.70;99.90;;;;;;5005175;28;20563;-74
2022/06/04 01:46:37;;;;;;;26.30;24.70;;;14.70;99.90;;;;;;5005581;28;20053;-75
2022/06/04 01:49:13;;;;;;;25.92;23.88;;;14.70;99.90;;;;;;5008101;28;20057;-74
2022/06/04 01:51:41;;;;;;;25.70;23.95;;;14.70;99.90;;;;;;5027776;28;20037;-75
2022/06/04 01:54:23;;;;;;;25.25;23.85;;;14.60;99.90;;;;;;4989430;28;20045;-76
2022/06/04 01:56:55;;;;;;;26.38;24.67;;;14.60;99.90;;;;;;5007029;28;20175;-74
2022/06/04 01:59:51;;;;;;;25.92;24.20;;;14.50;99.90;;;;;;5031330;28;20049;-76
2022/06/04 02:02:55;;;;;;;25.92;24.40;;;14.60;99.90;;;;;;5001619;28;20822;-76
2022/06/04 02:05:55;;;;;;;26.80;24.90;;;14.50;99.90;;;;;;4998076;28;20068;-75
2022/06/04 02:08:31;;;;;;;26.25;24.63;;;14.40;99.90;;;;;;5002205;28;20050;-75
2022/06/04 02:11:05;;;;;;;26.20;24.60;;;14.30;99.90;;;;;;5002154;28;20073;-74
2022/06/04 02:13:34;;;;;;;26.40;24.50;;;14.30;99.90;;;;;;5020212;28;20049;-75
2022/06/04 02:16:27;;;;;;;25.67;24.02;;;14.30;99.90;;;;;;5004291;28;20049;-75
2022/06/04 02:18:57;;;;;;;26.83;25.08;;;14.10;99.90;;;;;;5006455;28;20565;-74
2022/06/04 02:21:25;;;;;;;27.48;25.52;;;14.10;99.90;;;;;;5030687;28;20103;-76
2022/06/04 02:23:52;;;;;;;27.80;25.80;;;14.00;99.90;;;;;;5005404;28;20061;-75
2022/06/04 02:26:18;;;;;;;27.00;25.23;;;14.00;99.90;;;;;;5005433;28;20057;-75
2022/06/04 02:28:49;;;;;;;26.30;24.42;;;14.00;99.90;;;;;;5013638;28;20045;-75
2022/06/04 02:31:40;;;;;;;25.80;24.20;;;14.00;99.90;;;;;;5022357;28;20053;-74
2022/06/04 02:34:22;;;;;;;26.90;25.00;;;13.90;99.90;;;;;;5025326;28;20530;-75
2022/06/04 02:37:02;;;;;;;26.27;24.60;;;13.90;99.90;;;;;;5004765;28;20049;-75
2022/06/04 02:39:49;;;;;;;25.80;24.20;;;13.70;99.90;;;;;;5012518;28;20482;-75
2022/06/04 02:42:42;;;;;;;26.15;24.23;;;13.70;99.90;;;;;;5002646;28;20304;-76
2022/06/04 02:45:13;;;;;;;25.92;24.23;;;13.70;99.90;;;;;;4995302;28;20050;-76
2022/06/04 02:47:47;;;;;;;25.52;23.92;;;13.70;99.90;;;;;;5002567;28;20120;-74
2022/06/04 02:50:13;;;;;;;26.20;24.40;;;13.70;99.90;;;;;;5018173;28;20127;-74
2022/06/04 02:52:42;;;;;;;25.83;24.00;;;13.60;99.90;;;;;;5015868;28;20044;-74
2022/06/04 02:55:14;;;;;;;26.25;24.35;;;13.60;99.90;;;;;;5021292;28;20084;-76
2022/06/04 02:57:46;;;;;;;26.55;24.60;;;13.60;99.90;;;;;;5003163;28;20231;-76
2022/06/04 03:00:17;;;;;;;24.67;23.08;;;13.50;99.90;;;;;;5039572;28;20057;-76
2022/06/04 03:02:45;;;;;;;27.15;25.52;;;13.50;99.90;;;;;;5028466;28;20049;-76
2022/06/04 03:05:21;;;;;;;26.05;23.95;;;13.60;99.90;;;;;;5010952;28;20051;-74
2022/06/04 03:07:51;;;;;;;25.23;23.65;;;13.60;99.90;;;;;;5008898;28;20750;-75
2022/06/04 03:10:26;;;;;;;24.27;22.73;;;13.50;99.90;;;;;;5025627;28;20049;-76
2022/06/04 03:12:53;;;;;;;25.27;23.70;;;13.50;99.90;;;;;;5025823;28;20658;-75
2022/06/04 03:15:21;;;;;;;23.88;22.45;;;13.50;99.90;;;;;;5007871;28;20049;-75
2022/06/04 03:17:48;;;;;;;23.83;22.20;;;13.40;99.90;;;;;;4991878;28;20103;-74
2022/06/04 03:20:19;;;;;;;25.17;23.17;;;13.40;99.90;;;;;;5033807;28;20107;-76
2022/06/04 03:22:46;;;;;;;25.20;23.58;;;13.40;99.90;;;;;;4972575;28;20053;-75
2022/06/04 03:25:13;;;;;;;24.77;23.17;;;13.40;99.90;;;;;;4999103;28;20061;-75
2022/06/04 03:27:40;;;;;;;24.77;23.27;;;13.30;99.90;;;;;;5012442;28;20654;-74
2022/06/04 03:30:08;;;;;;;24.42;22.73;;;13.30;99.90;;;;;;5018862;28;20050;-76
2022/06/04 03:32:34;;;;;;;24.45;22.65;;;13.30;99.90;;;;;;5040913;28;20452;-75
2022/06/04 03:35:01;;;;;;;24.83;23.27;;;13.30;99.90;;;;;;5007593;28;20053;-75
2022/06/04 03:37:28;;;;;;;25.60;24.00;;;13.20;99.90;;;;;;5008223;28;20053;-75
2022/06/04 03:39:55;;;;;;;25.63;23.88;;;13.20;99.90;;;;;;4993934;28;20125;-74
2022/06/04 03:42:22;;;;;;;25.90;23.65;;;13.20;99.90;;;;;;5003738;28;20657;-75
2022/06/04 03:44:48;;;;;;;24.33;22.73;;;13.30;99.90;;;;;;5006576;28;20053;-76
2022/06/04 03:47:17;;;;;;;24.95;23.42;;;13.30;99.90;;;;;;5007913;28;20123;-75
2022/06/04 03:49:44;;;;;;;24.20;22.50;;;13.20;99.90;;;;;;5016306;28;20106;-75
2022/06/04 03:52:12;;;;;;;24.08;22.52;;;13.20;99.90;;;;;;5022623;28;20672;-74
2022/06/04 03:54:54;;;;;;;24.63;22.92;;;13.20;99.90;;;;;;5045385;28;20049;-75
2022/06/04 04:00:31;;;;;;;24.02;22.52;;;13.20;99.90;;;;;;5008402;28;20522;-76
2022/06/04 04:03:10;;;;;;;24.02;22.20;;;13.30;99.90;;;;;;5027582;28;20053;-75
2022/06/04 04:05:50;;;;;;;23.63;22.02;;;13.30;99.90;;;;;;5007639;28;20610;-76
2022/06/04 04:08:18;;;;;;;22.45;21.05;;;13.20;99.90;;;;;;4990593;28;20115;-75
2022/06/04 04:10:46;;;;;;;23.83;22.15;;;13.20;99.90;;;;;;5007381;28;20080;-75
2022/06/04 04:13:15;;;;;;;23.30;21.65;;;13.20;99.90;;;;;;5007529;28;20056;-75
2022/06/04 04:15:43;;;;;;;23.58;22.00;;;13.20;99.90;;;;;;5007174;28;20126;-76
2022/06/04 04:18:10;;;;;;;24.42;22.83;;;13.20;99.90;;;;;;5006693;28;20053;-76
2022/06/04 04:20:41;;;;;;;22.92;21.63;;;13.20;99.90;;;;;;5018023;28;20061;-76
2022/06/04 04:23:09;;;;;;;24.83;23.23;;;13.30;99.90;;;;;;5045102;28;20153;-76
2022/06/04 04:25:37;;;;;;;25.35;23.58;;;13.40;99.90;;;;;;4996350;28;20057;-74
2022/06/04 04:28:04;;;;;;;24.60;23.02;;;13.30;99.90;;;;;;5011520;28;20065;-75
2022/06/04 04:30:34;;;;;;;25.33;23.48;;;13.30;99.90;;;;;;5033859;28;20107;-77
2022/06/04 04:33:03;;;;;;;24.70;22.98;;;13.50;99.90;;;;;;5007244;28;20045;-75
2022/06/04 04:35:33;;;;;;;25.33;23.58;;;13.50;99.90;;;;;;5024045;28;20057;-76
2022/06/04 04:38:00;;;;;;;24.58;23.08;;;13.70;99.90;;;;;;5007106;28;20053;-75
2022/06/04 04:40:29;;;;;;;24.60;23.10;;;13.70;99.90;;;;;;4988634;28;20050;-75
2022/06/04 04:42:56;;;;;;;24.08;22.58;;;13.70;99.90;;;;;;4987269;28;20046;-74
2022/06/04 04:45:24;;;;;;;24.38;22.88;;;13.80;99.90;;;;;;4986282;28;20053;-76
2022/06/04 04:47:52;;;;;;;24.42;22.70;;;13.90;99.90;;;;;;4980973;28;20763;-74
2022/06/04 04:50:33;;;;;;;24.80;22.90;;;13.80;99.90;;;;;;5031531;28;20510;-74
2022/06/04 04:53:02;;;;;;;24.00;22.30;;;13.80;99.90;;;;;;5044821;28;20056;-75
2022/06/04 04:55:30;;;;;;;24.23;22.67;;;13.90;99.90;;;;;;5025567;28;20049;-75
2022/06/04 04:57:57;;;;;;;24.08;22.75;;;13.90;99.90;;;;;;5031479;28;20049;-76
2022/06/04 05:00:24;;;;;;;24.38;22.88;;;14.00;99.90;;;;;;5022469;28;20104;-76
2022/06/04 05:02:51;;;;;;;25.50;23.70;;;14.20;99.90;;;;;;5005931;28;20049;-75
2022/06/04 05:05:18;;;;;;;24.65;23.02;;;14.10;99.90;;;;;;5017342;28;20283;-76
2022/06/04 05:07:45;;;;;;;24.75;22.92;;;14.00;99.90;;;;;;5022899;28;20528;-74
2022/06/04 05:10:13;;;;;;;25.35;23.50;;;14.10;99.90;;;;;;5005600;28;20052;-76
2022/06/04 05:12:40;;;;;;;24.17;22.77;;;14.10;99.90;;;;;;5022646;28;20053;-74
2022/06/04 05:15:08;;;;;;;24.23;22.52;;;14.10;99.90;;;;;;5005195;28;20637;-75
2022/06/04 05:17:35;;;;;;;24.83;23.33;;;14.00;99.90;;;;;;5005533;28;20526;-77
2022/06/04 05:20:03;;;;;;;25.27;23.58;;;14.10;99.90;;;;;;5012039;28;20099;-75
2022/06/04 05:22:30;;;;;;;24.55;22.92;;;14.30;99.90;;;;;;5007174;28;20056;-75
2022/06/04 05:24:56;;;;;;;24.58;22.95;;;14.30;99.90;;;;;;4989161;28;20060;-74
2022/06/04 05:27:23;;;;;;;24.17;22.48;;;14.20;99.90;;;;;;5025759;28;20045;-75
2022/06/04 05:29:50;;;;;;;24.65;23.10;;;14.40;99.90;;;;;;5031855;28;20033;-75
2022/06/04 05:32:17;;;;;;;24.50;23.00;;;14.40;99.90;;;;;;5024549;28;20129;-76
2022/06/04 05:34:43;;;;;;;24.25;22.88;;;14.60;99.90;;;;;;5024958;28;20049;-77
2022/06/04 05:37:10;;;;;;;23.90;22.20;;;14.80;99.90;;;;;;5008054;28;20060;-75
2022/06/04 05:39:37;;;;;;;23.48;22.08;;;15.00;99.90;;;;;;5015800;28;20634;-76
2022/06/04 05:42:05;;;;;;;24.50;23.02;;;15.40;99.90;;;;;;5004585;28;20077;-75
2022/06/04 05:44:32;;;;;;;24.70;23.08;;;15.20;99.90;;;;;;5022404;28;20057;-75
2022/06/04 05:46:59;;;;;;;24.33;22.83;;;15.00;99.90;;;;;;5004692;28;20061;-76
2022/06/04 05:49:26;;;;;;;23.60;22.20;;;14.90;99.90;;;;;;5008692;28;20045;-76
2022/06/04 05:51:53;;;;;;;23.63;22.13;;;15.00;99.90;;;;;;5015978;28;20045;-75
2022/06/04 05:54:20;;;;;;;24.25;22.75;;;15.10;99.90;;;;;;5024345;28;20502;-76
2022/06/04 05:56:49;;;;;;;24.77;23.35;;;15.30;99.90;;;;;;5021161;28;20497;-76
2022/06/04 05:59:19;;;;;;;24.70;23.17;;;15.60;99.90;;;;;;5017039;28;20207;-75
2022/06/04 06:01:47;;;;;;;23.27;21.88;;;15.40;99.90;;;;;;5022358;28;20049;-76
2022/06/04 06:04:16;;;;;;;24.73;23.02;;;15.50;99.90;;;;;;5004879;28;20099;-75
2022/06/04 06:06:49;;;;;;;23.38;21.75;;;15.70;99.90;;;;;;5022303;28;20088;-75
2022/06/04 06:09:20;;;;;;;24.55;23.10;;;15.80;99.90;;;;;;5005166;28;20045;-75
2022/06/04 06:11:48;;;;;;;24.90;23.52;;;15.80;99.90;;;;;;5003178;28;20085;-75
2022/06/04 06:14:16;;;;;;;24.50;23.20;;;16.20;99.90;;;;;;4985033;28;20632;-75
2022/06/04 06:16:45;;;;;;;24.80;23.50;;;16.70;99.90;;;;;;5001146;28;20112;-75
2022/06/04 06:19:13;;;;;;;24.25;22.95;;;17.10;99.90;;;;;;5006192;28;20049;-75
2022/06/04 06:21:41;;;;;;;25.38;23.98;;;17.20;99.90;;;;;;5009150;28;20052;-77
2022/06/04 06:24:10;;;;;;;25.25;23.73;;;17.20;99.90;;;;;;4988405;28;20715;-75
2022/06/04 06:26:48;;;;;;;24.73;23.23;;;17.60;99.90;;;;;;5004787;28;20139;-75
2022/06/04 06:29:17;;;;;;;25.83;24.20;;;17.90;99.90;;;;;;5016402;28;20277;-74
2022/06/04 06:31:44;;;;;;;24.30;22.90;;;17.90;99.90;;;;;;5014719;28;20103;-74
2022/06/04 06:34:12;;;;;;;26.60;25.02;;;18.00;99.90;;;;;;5009035;28;20053;-75
2022/06/04 06:36:39;;;;;;;25.25;23.88;;;17.30;99.90;;;;;;5026761;28;20049;-74
2022/06/04 06:39:06;;;;;;;26.48;24.80;;;16.90;99.90;;;;;;5014388;23;20061;-76
2022/06/04 06:41:33;;;;;;;25.75;24.23;;;16.60;99.90;;;;;;5005444;28;20267;-76
2022/06/04 06:44:01;;;;;;;26.33;24.95;;;16.90;99.90;;;;;;5017387;28;20045;-75
2022/06/04 06:46:35;;;;;;;26.92;25.30;;;17.00;99.90;;;;;;5016137;28;20056;-74
2022/06/04 06:49:11;;;;;;;25.58;24.13;;;17.60;99.90;;;;;;5014323;28;20045;-76
2022/06/04 06:51:49;;;;;;;27.73;26.17;;;17.80;99.90;;;;;;4997860;28;20050;-75
2022/06/04 06:54:18;;;;;;;28.00;25.92;;;17.40;99.90;;;;;;4997933;28;20144;-75
2022/06/04 06:56:47;;;;;;;26.02;24.73;;;17.20;99.90;;;;;;4998135;28;20053;-75
2022/06/04 06:59:15;;;;;;;25.42;24.13;;;17.00;99.90;;;;;;4998029;28;20133;-75
2022/06/04 07:01:43;;;;;;;26.17;24.27;;;16.90;99.90;;;;;;4997069;28;20216;-75
2022/06/04 07:04:10;;;;;;;26.45;24.75;;;17.00;99.90;;;;;;4997675;28;20149;-75
2022/06/04 07:06:43;;;;;;;26.73;25.33;;;17.10;99.90;;;;;;4997252;28;20046;-75
2022/06/04 07:09:18;;;;;;;25.60;24.13;;;17.40;99.90;;;;;;5031904;28;20141;-75
2022/06/04 07:11:45;;;;;;;;;;;17.90;99.90;;;;;;5014549;28;20133;-77
2022/06/04 07:14:13;;;;;;;25.70;24.23;;;17.60;99.90;;;;;;4998107;28;19969;-75
2022/06/04 07:16:42;;;;;;;25.88;24.15;;;17.80;99.90;;;;;;4998969;28;20054;-74
2022/06/04 07:19:11;;;;;;;25.80;24.30;;;18.00;99.90;;;;;;4998868;28;20792;-74
2022/06/04 07:21:41;;;;;;;24.73;23.17;;;17.90;99.90;;;;;;4995974;28;20159;-74
2022/06/04 07:24:08;;;;;;;26.73;25.00;;;17.80;99.90;;;;;;4981878;28;20061;-76
2022/06/04 07:26:35;;;;;;;25.95;24.40;;;17.70;99.90;;;;;;4981263;28;20046;-76
2022/06/04 07:29:03;;;;;;;26.95;25.25;;;17.50;99.90;;;;;;4997966;28;20248;-72
2022/06/04 07:31:31;;;;;;;26.23;24.73;;;18.00;99.90;;;;;;4996606;28;20769;-73
2022/06/04 07:33:58;;;;;;;25.40;23.90;;;18.50;99.90;;;;;;4996625;28;20180;-73
2022/06/04 07:36:30;;;;;;;25.20;23.80;;;18.90;99.90;;;;;;4998789;28;20049;-72
2022/06/04 07:38:58;;;;;;;24.80;23.40;;;18.60;99.90;;;;;;4997835;28;20391;-73
2022/06/04 07:41:31;;;;;;;25.10;23.45;;;18.80;99.90;;;;;;4979703;28;20044;-74
2022/06/04 07:43:59;;;;;;;26.60;25.15;;;18.80;99.90;;;;;;4981247;28;20049;-74
2022/06/04 07:46:29;;;;;;;26.15;24.85;;;18.60;99.90;;;;;;4982080;28;20058;-75
2022/06/04 07:49:00;;;;;;;27.58;25.95;;;18.30;99.90;;;;;;5000452;28;20077;-74
2022/06/04 07:51:28;;;;;;;28.08;26.38;;;18.10;99.90;;;;;;5031638;23;20252;-76
2022/06/04 07:53:55;;;;;;;27.75;26.33;;;18.40;99.90;;;;;;5017080;28;20045;-76
2022/06/04 07:56:23;;;;;;;27.60;25.83;;;18.40;99.90;;;;;;5018826;28;20061;-78
2022/06/04 07:58:50;;;;;;;26.98;25.38;;;18.40;99.90;;;;;;5046448;28;20120;-78
2022/06/04 08:01:19;;;;;;;26.38;24.98;;;18.80;99.90;;;;;;5023654;28;20060;-78
2022/06/04 08:03:48;;;;;;;25.08;23.77;;;18.90;99.90;;;;;;5014235;28;20052;-79
2022/06/04 08:06:17;;;;;;;26.70;25.17;;;19.00;99.90;;;;;;5015333;28;20125;-75
2022/06/04 08:08:46;;;;;;;26.92;25.52;;;18.90;99.90;;;;;;5035278;28;20547;-77
2022/06/04 08:11:31;;;;;;;26.25;24.75;;;18.90;99.90;;;;;;5010193;28;20156;-77
2022/06/04 08:14:13;;;;;;;26.50;25.17;;;18.70;99.90;;;;;;5017530;28;20080;-76
2022/06/04 08:16:48;;;;;;;26.48;24.98;;;18.90;99.90;;;;;;5015741;28;20523;-77
2022/06/04 08:19:15;;;;;;;;;;;19.50;99.90;;;;;;5021441;28;20100;-76
2022/06/04 08:21:42;;;;;;;26.20;24.80;;;20.20;99.90;;;;;;5036786;28;19925;-76
2022/06/04 08:24:10;;;;;;;25.58;24.17;;;20.70;99.90;;;;;;5007788;28;20242;-76
2022/06/04 08:26:38;;;;;;;25.25;23.85;;;20.50;99.90;;;;;;5019541;28;20053;-76
2022/06/04 08:29:05;;;;;;;26.00;24.42;;;21.30;99.90;;;;;;5018116;28;20130;-77
2022/06/04 08:31:32;;;;;;;25.23;23.92;;;21.40;99.90;;;;;;5014159;28;20137;-76
2022/06/04 08:33:58;;;;;;;22.77;21.58;;;21.80;99.90;;;;;;5010152;28;20038;-76
2022/06/04 08:36:26;;;;;;;24.38;23.08;;;21.40;99.90;;;;;;5005762;28;20616;-75
2022/06/04 08:38:53;;;;;;;25.75;24.10;;;20.10;99.90;;;;;;5025288;28;20061;-75
2022/06/04 08:41:20;;;;;;;24.95;23.63;;;19.60;99.90;;;;;;5011911;28;20399;-74
2022/06/04 08:43:52;;;;;;;24.30;22.83;;;19.70;99.90;;;;;;5018485;28;20053;-75
2022/06/04 08:46:41;;;;;;;23.83;22.63;;;20.30;99.90;;;;;;5023326;28;20053;-76
2022/06/04 08:49:24;;;;;;;24.20;22.63;;;20.30;99.90;;;;;;5026427;28;20145;-74
2022/06/04 08:51:51;;;;;;;22.85;21.55;;;20.00;99.90;;;;;;5025022;28;20707;-77
2022/06/04 09:00:01;;;;;;;25.67;24.13;;;20.40;99.90;;;;;;5007702;28;20046;-74
2022/06/04 09:03:04;;;;;;;24.67;23.30;;;20.70;99.90;;;;;;5002365;28;20136;-77
2022/06/04 09:06:01;;;;;;;24.80;23.40;;;20.80;99.90;;;;;;5010472;28;20041;-75
2022/06/04 09:08:39;;;;;;;25.05;23.75;;;20.80;99.90;;;;;;5004581;28;20046;-76
2022/06/04 09:11:13;;;;;;;26.30;24.77;;;21.10;99.90;;;;;;5003655;28;20041;-77
2022/06/04 09:13:46;;;;;;;26.52;25.13;;;21.20;99.90;;;;;;5003430;28;20104;-76
2022/06/04 09:16:36;;;;;;;25.08;23.05;;;21.40;99.90;;;;;;5003639;28;20078;-76
2022/06/04 09:19:10;;;;;;;22.90;21.83;;;21.30;99.90;;;;;;5014470;28;20430;-76
2022/06/04 09:21:38;;;;;;;25.98;24.38;;;21.50;99.90;;;;;;5022943;28;20061;-76
2022/06/04 09:24:05;;;;;;;24.88;23.50;;;21.30;99.90;;;;;;5022992;28;20042;-75
2022/06/04 09:26:42;;;;;;;26.00;24.55;;;21.60;99.90;;;;;;5015826;28;20503;-76
2022/06/04 09:29:17;;;;;;;25.35;24.15;;;21.90;99.90;;;;;;5012836;28;20089;-76
2022/06/04 09:31:46;;;;;;;24.80;23.60;;;21.50;99.90;;;;;;4983767;28;20105;-77
2022/06/04 09:34:29;;;;;;;23.40;22.10;;;20.70;99.90;;;;;;4984942;28;20105;-75
2022/06/04 09:36:57;;;;;;;23.98;22.85;;;20.50;99.90;;;;;;4984337;28;20046;-78
2022/06/04 09:39:33;;;;;;;25.10;23.67;;;20.10;99.90;;;;;;4984975;28;20058;-77
2022/06/04 09:42:21;;;;;;;23.77;22.48;;;20.30;99.90;;;;;;4986957;28;20512;-77
2022/06/04 09:45:03;;;;;;;24.13;22.92;;;19.80;99.90;;;;;;5004214;28;20411;-77
2022/06/04 09:47:48;;;;;;;25.55;24.35;;;19.70;99.90;;;;;;5012477;28;20708;-76
2022/06/04 09:50:20;;;;;;;24.67;23.33;;;19.80;99.90;;;;;;5019343;28;20061;-76
2022/06/04 09:53:14;;;;;;;24.95;23.75;;;19.80;99.90;;;;;;5004463;28;20053;-77
2022/06/04 09:55:48;;;;;;;23.80;22.70;;;20.00;99.90;;;;;;5004834;28;20099;-77
2022/06/04 09:58:29;;;;;;;25.65;24.25;;;20.00;99.90;;;;;;5012305;28;20140;-76
2022/06/04 10:01:05;;;;;;;26.20;24.80;;;20.10;99.90;;;;;;5017998;28;20099;-77
2022/06/04 10:03:38;;;;;;;23.33;22.02;;;19.90;99.90;;;;;;5022862;28;20135;-77
2022/06/04 10:06:10;;;;;;;25.02;23.73;;;20.00;99.90;;;;;;5021745;28;20056;-76
2022/06/04 10:11:32;;;;;;;22.58;21.48;;;20.30;99.90;;;;;;5004375;28;20050;-77
2022/06/04 10:13:59;;;;;;;24.50;23.40;;;20.40;99.90;;;;;;5003381;28;20435;-75
2022/06/04 10:16:40;;;;;;;21.80;20.75;;;20.30;99.90;;;;;;5003206;28;20067;-75
2022/06/04 10:19:20;;;;;;;22.90;21.73;;;20.00;99.90;;;;;;5006764;28;20437;-74
2022/06/04 10:21:50;;;;;;;23.60;22.23;;;19.70;99.90;;;;;;4999331;28;20108;-77
2022/06/04 10:24:25;;;;;;;22.95;21.90;;;19.70;99.90;;;;;;4984847;28;20055;-75
2022/06/04 10:27:19;;;;;;;24.30;23.10;;;20.10;99.90;;;;;;4989509;28;20452;-76
2022/06/04 10:30:09;;;;;;;23.88;22.48;;;20.30;99.90;;;;;;5020793;28;20045;-77
2022/06/04 10:32:45;;;;;;;23.80;22.67;;;20.40;99.90;;;;;;5002861;28;20331;-78
2022/06/04 10:35:42;;;;;;;25.15;23.85;;;20.50;99.90;;;;;;5003103;28;20053;-77
2022/06/04 10:38:31;;;;;;;27.13;25.65;;;20.90;99.90;;;;;;5006358;28;20062;-77
2022/06/04 10:41:26;;;;;;;27.35;26.05;;;21.20;99.90;;;;;;5006976;28;20045;-77
2022/06/04 10:44:18;;;;;;;23.60;22.40;;;21.30;99.90;;;;;;5006557;28;20053;-76
2022/06/04 10:47:20;;;;;;;25.98;24.77;;;21.70;99.90;;;;;;5006674;28;20110;-75
2022/06/04 10:50:14;;;;;;;24.60;23.42;;;21.50;99.90;;;;;;4985815;28;20388;-75
2022/06/04 10:52:45;;;;;;;23.77;22.50;;;20.90;99.90;;;;;;5001681;28;20053;-76
2022/06/04 10:55:38;;;;;;;23.25;22.15;;;21.20;99.90;;;;;;5004239;28;20068;-79
2022/06/04 10:58:23;;;;;;;24.15;22.92;;;21.00;99.90;;;;;;5012264;28;20139;-77
2022/06/04 11:01:02;;;;;;;24.83;23.55;;;21.00;99.90;;;;;;4998901;28;20128;-78
2022/06/04 11:03:35;;;;;;;26.02;24.60;;;20.70;99.90;;;;;;5003097;28;20140;-77
2022/06/04 11:06:20;;;;;;;26.00;24.52;;;21.10;99.90;;;;;;5004316;28;20417;-76
2022/06/04 11:08:53;;;;;;;26.55;25.23;;;21.60;99.90;;;;;;5002885;28;20835;-77
2022/06/04 11:11:26;;;;;;;26.15;24.85;;;21.20;99.90;;;;;;5001811;28;20141;-75
2022/06/04 11:14:03;;;;;;;26.33;25.02;;;21.20;99.90;;;;;;5003694;28;20057;-77
2022/06/04 11:16:45;;;;;;;26.05;24.73;;;21.70;99.90;;;;;;5005046;28;20410;-76
2022/06/04 11:19:21;;;;;;;26.27;24.98;;;22.30;99.90;;;;;;5006210;28;20049;-77
2022/06/04 11:21:59;;;;;;;26.73;25.33;;;21.80;99.90;;;;;;5006162;28;20469;-77
2022/06/04 11:24:54;;;;;;;29.00;27.50;;;22.00;99.90;;;;;;5008394;28;20081;-77
2022/06/04 11:27:36;;;;;;;26.13;24.77;;;21.60;99.90;;;;;;5014743;28;20048;-77
2022/06/04 11:30:12;;;;;;;25.98;24.67;;;21.20;99.90;;;;;;5012738;28;20042;-77
2022/06/04 11:32:53;;;;;;;26.15;24.95;;;21.50;99.90;;;;;;5017472;28;20286;-77
2022/06/04 11:35:41;;;;;;;24.98;23.50;;;21.50;99.90;;;;;;5005113;28;20054;-77
2022/06/04 11:38:14;;;;;;;26.58;25.15;;;21.30;99.90;;;;;;5007435;28;20049;-78
2022/06/04 11:40:56;;;;;;;25.85;24.65;;;21.40;99.90;;;;;;4995327;28;20084;-76
2022/06/04 11:44:01;;;;;;;24.33;23.02;;;20.70;99.90;;;;;;5007109;28;20058;-76
2022/06/04 11:47:00;;;;;;;26.30;24.58;;;20.90;99.90;;;;;;5007764;28;20113;-78
2022/06/04 11:49:52;;;;;;;26.08;24.75;;;20.70;99.90;;;;;;5005797;28;20046;-76
2022/06/04 11:52:51;;;;;;;25.05;23.83;;;20.80;99.90;;;;;;5012427;28;20056;-77
2022/06/04 11:55:25;;;;;;;25.77;24.38;;;21.00;99.90;;;;;;5002468;28;20717;-77
2022/06/04 11:58:04;;;;;;;24.27;23.08;;;21.30;99.90;;;;;;5021049;28;20812;-79
2022/06/04 12:00:41;;;;;;;24.42;23.13;;;21.40;99.90;;;;;;5019121;28;20068;-78
2022/06/04 12:03:11;;;;;;;23.33;21.95;;;21.30;99.90;;;;;;5023805;28;20060;-77
2022/06/04 12:05:59;;;;;;;23.70;22.52;;;21.60;99.90;;;;;;5005911;28;20045;-77
2022/06/04 12:08:45;;;;;;;23.98;22.77;;;21.70;99.90;;;;;;5004872;28;20045;-78
2022/06/04 12:11:44;;;;;;;25.20;23.92;;;21.40;99.90;;;;;;5006231;28;20108;-77
2022/06/04 12:14:29;;;;;;;25.88;24.52;;;21.40;99.90;;;;;;5004974;28;20490;-78
2022/06/04 12:17:11;;;;;;;26.15;24.75;;;21.30;99.90;;;;;;5004592;28;20042;-77
2022/06/04 12:25:45;;;;;;;24.63;23.25;;;21.80;99.90;;;;;;5008140;28;20038;-77
2022/06/04 12:28:28;;;;;;;24.42;23.13;;;21.70;99.90;;;;;;5012806;28;20604;-77
2022/06/04 12:30:59;;;;;;;23.48;22.38;;;21.60;99.90;;;;;;5015372;28;20049;-78
2022/06/04 12:33:39;;;;;;;24.27;23.08;;;21.40;99.90;;;;;;5025643;28;20121;-78
2022/06/04 12:36:09;;;;;;;26.27;24.88;;;21.30;99.90;;;;;;5025135;28;20073;-77
2022/06/04 12:38:39;;;;;;;24.02;22.83;;;21.20;99.90;;;;;;5022780;28;20049;-75
2022/06/04 12:41:08;;;;;;;24.75;23.27;;;21.50;99.90;;;;;;5005812;28;20100;-76
2022/06/04 12:43:38;;;;;;;23.23;22.02;;;21.70;99.90;;;;;;5000886;28;20585;-74
2022/06/04 12:46:28;;;;;;;25.05;23.83;;;21.70;99.90;;;;;;5004726;28;20739;-74
2022/06/04 12:49:22;;;;;;;22.98;21.77;;;21.30;99.90;;;;;;4987702;28;20176;-75
2022/06/04 12:51:51;;;;;;;22.75;21.65;;;21.70;99.90;;;;;;5008328;28;20045;-75
2022/06/04 12:54:51;;;;;;;24.48;23.08;;;21.50;99.90;;;;;;5014718;28;20254;-76
2022/06/04 12:57:30;;;;;;;24.40;23.17;;;21.40;99.90;;;;;;5022225;28;20096;-76
2022/06/04 13:00:32;;;;;;;24.63;23.42;;;21.50;99.90;;;;;;5002169;28;20049;-76
2022/06/04 13:03:08;;;;;;;23.92;22.83;;;21.50;99.90;;;;;;4999500;28;20230;-76
2022/06/04 13:05:57;;;;;;;25.10;23.90;;;21.30;99.90;;;;;;5004820;28;20050;-76
2022/06/04 13:08:36;;;;;;;24.67;23.35;;;21.40;99.90;;;;;;5001276;28;20057;-75
2022/06/04 13:11:18;;;;;;;24.85;23.67;;;21.40;99.90;;;;;;5005445;28;20045;-75
2022/06/04 13:13:55;;;;;;;25.58;24.27;;;21.70;99.90;;;;;;5004342;28;20075;-76
2022/06/04 13:16:27;;;;;;;24.45;23.25;;;22.00;99.90;;;;;;5003728;28;20084;-75
2022/06/04 13:19:15;;;;;;;25.63;24.00;;;22.00;99.90;;;;;;5002784;28;20085;-77
2022/06/04 13:21:47;;;;;;;25.83;24.63;;;21.80;99.90;;;;;;5005234;28;20441;-76
2022/06/04 13:24:19;;;;;;;24.80;23.50;;;21.60;99.90;;;;;;5011292;28;20518;-76
2022/06/04 13:26:57;;;;;;;24.33;22.98;;;21.50;99.90;;;;;;5006089;28;20046;-76
2022/06/04 13:29:34;;;;;;;24.02;22.92;;;21.80;99.90;;;;;;5012899;28;20042;-75